sensor_id;sensor_type;location;lat;lon;timestamp;P1;durP1;ratioP1;P2;durP2;ratioP2
26620;SDS011;14253;44.840;10.444;2023-04-08T00:00:10;39.47;;;24.23;;
26620;SDS011;14253;44.840;10.444;2023-04-08T00:02:38;42.92;;;25.10;;
26620;SDS011;14253;44.840;10.444;2023-04-08T00:05:06;36.20;;;25.85;;
26620;SDS011;14253;44.840;10.444;2023-04-08T00:07:32;40.58;;;26.42;;
26620;SDS011;14253;44.840;10.444;2023-04-08T00:09:58;37.20;;;25.58;;
26620;SDS011;14253;44.840;10.444;2023-04-08T00:12:24;36.45;;;26.08;;
26620;SDS011;14253;44.840;10.444;2023-04-08T00:14:50;39.72;;;24.40;;
26620;SDS011;14253;44.840;10.444;2023-04-08T00:17:16;36.38;;;25.55;;
26620;SDS011;14253;44.840;10.444;2023-04-08T00:19:42;38.40;;;25.25;;
26620;SDS011;14253;44.840;10.444;2023-04-08T00:22:09;36.40;;;24.40;;
26620;SDS011;14253;44.840;10.444;2023-04-08T00:24:35;37.92;;;25.02;;
26620;SDS011;14253;44.840;10.444;2023-04-08T00:27:01;34.95;;;24.55;;
26620;SDS011;14253;44.840;10.444;2023-04-08T00:29:28;33.05;;;23.10;;
26620;SDS011;14253;44.840;10.444;2023-04-08T00:31:54;31.98;;;23.33;;
26620;SDS011;14253;44.840;10.444;2023-04-08T00:34:19;34.72;;;24.33;;
26620;SDS011;14253;44.840;10.444;2023-04-08T00:36:45;32.33;;;22.35;;
26620;SDS011;14253;44.840;10.444;2023-04-08T00:39:12;26.38;;;19.75;;
26620;SDS011;14253;44.840;10.444;2023-04-08T00:41:38;29.95;;;20.35;;
26620;SDS011;14253;44.840;10.444;2023-04-08T00:44:04;27.95;;;19.17;;
26620;SDS011;14253;44.840;10.444;2023-04-08T00:46:33;28.15;;;18.70;;
26620;SDS011;14253;44.840;10.444;2023-04-08T00:49:02;35.65;;;22.02;;
26620;SDS011;14253;44.840;10.444;2023-04-08T00:51:28;31.98;;;22.27;;
26620;SDS011;14253;44.840;10.444;2023-04-08T00:53:55;30.52;;;21.30;;
26620;SDS011;14253;44.840;10.444;2023-04-08T00:56:21;28.58;;;20.67;;
26620;SDS011;14253;44.840;10.444;2023-04-08T00:58:48;29.42;;;20.00;;
26620;SDS011;14253;44.840;10.444;2023-04-08T01:04:52;24.58;;;18.05;;
26620;SDS011;14253;44.840;10.444;2023-04-08T01:09:29;22.63;;;16.30;;
26620;SDS011;14253;44.840;10.444;2023-04-08T01:12:00;21.58;;;15.60;;
26620;SDS011;14253;44.840;10.444;2023-04-08T01:14:30;20.98;;;15.45;;
26620;SDS011;14253;44.840;10.444;2023-04-08T01:16:59;21.92;;;15.82;;
26620;SDS011;14253;44.840;10.444;2023-04-08T01:19:28;25.38;;;15.80;;
26620;SDS011;14253;44.840;10.444;2023-04-08T01:22:00;23.42;;;16.17;;
26620;SDS011;14253;44.840;10.444;2023-04-08T01:24:35;26.42;;;17.58;;
26620;SDS011;14253;44.840;10.444;2023-04-08T01:27:05;23.45;;;16.85;;
26620;SDS011;14253;44.840;10.444;2023-04-08T01:29:32;21.10;;;15.73;;
26620;SDS011;14253;44.840;10.444;2023-04-08T01:31:59;23.58;;;15.35;;
26620;SDS011;14253;44.840;10.444;2023-04-08T01:34:26;21.17;;;14.73;;
26620;SDS011;14253;44.840;10.444;2023-04-08T01:36:55;22.92;;;14.80;;
26620;SDS011;14253;44.840;10.444;2023-04-08T01:39:22;22.65;;;15.55;;
26620;SDS011;14253;44.840;10.444;2023-04-08T01:41:50;21.58;;;15.32;;
26620;SDS011;14253;44.840;10.444;2023-04-08T01:44:19;25.45;;;16.20;;
26620;SDS011;14253;44.840;10.444;2023-04-08T01:46:46;20.02;;;14.35;;
26620;SDS011;14253;44.840;10.444;2023-04-08T01:49:15;20.17;;;14.18;;
26620;SDS011;14253;44.840;10.444;2023-04-08T01:51:42;19.35;;;14.63;;
26620;SDS011;14253;44.840;10.444;2023-04-08T01:54:10;19.67;;;13.85;;
26620;SDS011;14253;44.840;10.444;2023-04-08T01:56:37;18.05;;;13.80;;
26620;SDS011;14253;44.840;10.444;2023-04-08T01:59:08;17.65;;;12.90;;
26620;SDS011;14253;44.840;10.444;2023-04-08T02:01:38;17.70;;;12.82;;
26620;SDS011;14253;44.840;10.444;2023-04-08T02:04:05;17.33;;;13.00;;
26620;SDS011;14253;44.840;10.444;2023-04-08T02:06:31;20.25;;;13.25;;
26620;SDS011;14253;44.840;10.444;2023-04-08T02:08:58;17.30;;;12.75;;
26620;SDS011;14253;44.840;10.444;2023-04-08T02:11:26;19.52;;;12.90;;
26620;SDS011;14253;44.840;10.444;2023-04-08T02:13:53;17.00;;;12.27;;
26620;SDS011;14253;44.840;10.444;2023-04-08T02:16:33;15.63;;;11.55;;
26620;SDS011;14253;44.840;10.444;2023-04-08T02:19:14;17.15;;;12.70;;
26620;SDS011;14253;44.840;10.444;2023-04-08T02:21:52;21.38;;;12.25;;
26620;SDS011;14253;44.840;10.444;2023-04-08T02:24:24;17.50;;;12.05;;
26620;SDS011;14253;44.840;10.444;2023-04-08T02:26:52;16.23;;;11.90;;
26620;SDS011;14253;44.840;10.444;2023-04-08T02:29:22;17.10;;;11.88;;
26620;SDS011;14253;44.840;10.444;2023-04-08T02:31:52;18.85;;;12.50;;
26620;SDS011;14253;44.840;10.444;2023-04-08T02:34:19;21.38;;;12.88;;
26620;SDS011;14253;44.840;10.444;2023-04-08T02:36:46;16.75;;;12.30;;
26620;SDS011;14253;44.840;10.444;2023-04-08T02:39:12;17.60;;;11.85;;
26620;SDS011;14253;44.840;10.444;2023-04-08T02:41:38;16.02;;;11.75;;
26620;SDS011;14253;44.840;10.444;2023-04-08T02:44:04;16.80;;;11.82;;
26620;SDS011;14253;44.840;10.444;2023-04-08T02:46:30;18.85;;;12.30;;
26620;SDS011;14253;44.840;10.444;2023-04-08T02:48:56;15.35;;;11.77;;
26620;SDS011;14253;44.840;10.444;2023-04-08T02:51:22;13.77;;;10.80;;
26620;SDS011;14253;44.840;10.444;2023-04-08T02:53:48;14.15;;;10.73;;
26620;SDS011;14253;44.840;10.444;2023-04-08T02:56:14;17.35;;;11.80;;
26620;SDS011;14253;44.840;10.444;2023-04-08T02:58:40;16.35;;;11.25;;
26620;SDS011;14253;44.840;10.444;2023-04-08T03:01:07;17.25;;;10.90;;
26620;SDS011;14253;44.840;10.444;2023-04-08T03:03:33;17.25;;;11.52;;
26620;SDS011;14253;44.840;10.444;2023-04-08T03:05:59;18.63;;;10.57;;
26620;SDS011;14253;44.840;10.444;2023-04-08T03:08:25;16.08;;;11.75;;
26620;SDS011;14253;44.840;10.444;2023-04-08T03:10:51;19.55;;;12.65;;
26620;SDS011;14253;44.840;10.444;2023-04-08T03:13:17;20.55;;;13.98;;
26620;SDS011;14253;44.840;10.444;2023-04-08T03:15:43;16.92;;;11.70;;
26620;SDS011;14253;44.840;10.444;2023-04-08T03:18:09;17.25;;;11.90;;
26620;SDS011;14253;44.840;10.444;2023-04-08T03:20:35;17.13;;;12.63;;
26620;SDS011;14253;44.840;10.444;2023-04-08T03:23:01;17.15;;;12.50;;
26620;SDS011;14253;44.840;10.444;2023-04-08T03:25:27;18.52;;;13.38;;
26620;SDS011;14253;44.840;10.444;2023-04-08T03:27:53;22.42;;;14.40;;
26620;SDS011;14253;44.840;10.444;2023-04-08T03:30:20;19.42;;;13.20;;
26620;SDS011;14253;44.840;10.444;2023-04-08T03:32:46;21.95;;;14.07;;
26620;SDS011;14253;44.840;10.444;2023-04-08T03:35:12;22.08;;;13.88;;
26620;SDS011;14253;44.840;10.444;2023-04-08T03:37:38;20.08;;;13.50;;
26620;SDS011;14253;44.840;10.444;2023-04-08T03:40:04;20.27;;;14.35;;
26620;SDS011;14253;44.840;10.444;2023-04-08T03:42:30;22.38;;;15.30;;
26620;SDS011;14253;44.840;10.444;2023-04-08T03:44:56;19.95;;;14.52;;
26620;SDS011;14253;44.840;10.444;2023-04-08T03:47:22;22.67;;;15.57;;
26620;SDS011;14253;44.840;10.444;2023-04-08T03:49:48;25.10;;;14.85;;
26620;SDS011;14253;44.840;10.444;2023-04-08T03:52:17;22.90;;;14.77;;
26620;SDS011;14253;44.840;10.444;2023-04-08T03:54:43;23.45;;;14.77;;
26620;SDS011;14253;44.840;10.444;2023-04-08T03:57:08;22.73;;;14.77;;
26620;SDS011;14253;44.840;10.444;2023-04-08T03:59:36;20.80;;;14.68;;
26620;SDS011;14253;44.840;10.444;2023-04-08T04:02:03;22.95;;;14.65;;
26620;SDS011;14253;44.840;10.444;2023-04-08T04:04:29;22.20;;;15.18;;
26620;SDS011;14253;44.840;10.444;2023-04-08T04:06:55;26.35;;;16.25;;
26620;SDS011;14253;44.840;10.444;2023-04-08T04:09:21;26.33;;;16.15;;
26620;SDS011;14253;44.840;10.444;2023-04-08T04:11:47;22.30;;;16.20;;
26620;SDS011;14253;44.840;10.444;2023-04-08T04:14:13;25.35;;;16.05;;
26620;SDS011;14253;44.840;10.444;2023-04-08T04:16:39;22.48;;;16.27;;
26620;SDS011;14253;44.840;10.444;2023-04-08T04:19:05;25.58;;;17.95;;
26620;SDS011;14253;44.840;10.444;2023-04-08T04:21:31;24.70;;;16.15;;
26620;SDS011;14253;44.840;10.444;2023-04-08T04:23:57;24.65;;;16.60;;
26620;SDS011;14253;44.840;10.444;2023-04-08T04:26:23;24.10;;;17.10;;
26620;SDS011;14253;44.840;10.444;2023-04-08T04:28:49;23.70;;;17.00;;
26620;SDS011;14253;44.840;10.444;2023-04-08T04:31:22;25.77;;;17.38;;
26620;SDS011;14253;44.840;10.444;2023-04-08T04:33:52;28.40;;;17.25;;
26620;SDS011;14253;44.840;10.444;2023-04-08T04:36:18;25.70;;;17.30;;
26620;SDS011;14253;44.840;10.444;2023-04-08T04:38:45;27.33;;;18.38;;
26620;SDS011;14253;44.840;10.444;2023-04-08T04:41:11;24.95;;;17.45;;
26620;SDS011;14253;44.840;10.444;2023-04-08T04:43:37;25.00;;;16.50;;
26620;SDS011;14253;44.840;10.444;2023-04-08T04:46:03;24.75;;;16.50;;
26620;SDS011;14253;44.840;10.444;2023-04-08T04:48:31;24.80;;;17.75;;
26620;SDS011;14253;44.840;10.444;2023-04-08T04:50:58;27.20;;;16.80;;
26620;SDS011;14253;44.840;10.444;2023-04-08T04:53:28;25.23;;;17.70;;
26620;SDS011;14253;44.840;10.444;2023-04-08T04:55:54;25.30;;;18.15;;
26620;SDS011;14253;44.840;10.444;2023-04-08T04:58:20;26.55;;;18.33;;
26620;SDS011;14253;44.840;10.444;2023-04-08T05:00:46;24.67;;;17.33;;
26620;SDS011;14253;44.840;10.444;2023-04-08T05:03:12;27.17;;;19.45;;
26620;SDS011;14253;44.840;10.444;2023-04-08T05:05:38;29.15;;;17.95;;
26620;SDS011;14253;44.840;10.444;2023-04-08T05:08:04;31.20;;;19.83;;
26620;SDS011;14253;44.840;10.444;2023-04-08T05:10:31;27.13;;;19.20;;
26620;SDS011;14253;44.840;10.444;2023-04-08T05:12:57;30.67;;;19.95;;
26620;SDS011;14253;44.840;10.444;2023-04-08T05:15:23;29.65;;;20.35;;
26620;SDS011;14253;44.840;10.444;2023-04-08T05:17:49;28.02;;;19.33;;
26620;SDS011;14253;44.840;10.444;2023-04-08T05:20:15;30.77;;;19.63;;
26620;SDS011;14253;44.840;10.444;2023-04-08T05:22:41;29.95;;;20.92;;
26620;SDS011;14253;44.840;10.444;2023-04-08T05:25:09;26.10;;;18.38;;
26620;SDS011;14253;44.840;10.444;2023-04-08T05:27:35;30.02;;;20.13;;
26620;SDS011;14253;44.840;10.444;2023-04-08T05:30:02;28.35;;;18.00;;
26620;SDS011;14253;44.840;10.444;2023-04-08T05:32:28;28.70;;;17.92;;
26620;SDS011;14253;44.840;10.444;2023-04-08T05:34:54;28.23;;;18.40;;
26620;SDS011;14253;44.840;10.444;2023-04-08T05:37:20;28.92;;;20.50;;
26620;SDS011;14253;44.840;10.444;2023-04-08T05:39:46;29.27;;;19.80;;
26620;SDS011;14253;44.840;10.444;2023-04-08T05:42:12;30.83;;;21.40;;
26620;SDS011;14253;44.840;10.444;2023-04-08T05:44:38;29.30;;;20.15;;
26620;SDS011;14253;44.840;10.444;2023-04-08T05:47:06;32.92;;;19.55;;
26620;SDS011;14253;44.840;10.444;2023-04-08T05:49:32;26.70;;;19.63;;
26620;SDS011;14253;44.840;10.444;2023-04-08T05:51:58;27.27;;;19.15;;
26620;SDS011;14253;44.840;10.444;2023-04-08T05:54:24;28.73;;;19.55;;
26620;SDS011;14253;44.840;10.444;2023-04-08T05:56:50;25.60;;;17.50;;
26620;SDS011;14253;44.840;10.444;2023-04-08T05:59:16;27.15;;;17.60;;
26620;SDS011;14253;44.840;10.444;2023-04-08T06:01:42;24.75;;;17.08;;
26620;SDS011;14253;44.840;10.444;2023-04-08T06:04:08;24.25;;;15.70;;
26620;SDS011;14253;44.840;10.444;2023-04-08T06:06:33;22.35;;;15.13;;
26620;SDS011;14253;44.840;10.444;2023-04-08T06:09:03;20.52;;;14.02;;
26620;SDS011;14253;44.840;10.444;2023-04-08T06:11:28;17.35;;;12.68;;
26620;SDS011;14253;44.840;10.444;2023-04-08T06:13:54;16.23;;;12.25;;
26620;SDS011;14253;44.840;10.444;2023-04-08T06:16:20;19.05;;;12.32;;
26620;SDS011;14253;44.840;10.444;2023-04-08T06:18:46;16.67;;;12.13;;
26620;SDS011;14253;44.840;10.444;2023-04-08T06:21:12;17.33;;;11.55;;
26620;SDS011;14253;44.840;10.444;2023-04-08T06:23:38;15.18;;;11.20;;
26620;SDS011;14253;44.840;10.444;2023-04-08T06:26:04;13.43;;;10.98;;
26620;SDS011;14253;44.840;10.444;2023-04-08T06:28:30;14.32;;;11.02;;
26620;SDS011;14253;44.840;10.444;2023-04-08T06:30:57;15.27;;;11.68;;
26620;SDS011;14253;44.840;10.444;2023-04-08T06:33:23;15.32;;;11.57;;
26620;SDS011;14253;44.840;10.444;2023-04-08T06:35:49;16.25;;;10.82;;
26620;SDS011;14253;44.840;10.444;2023-04-08T06:38:16;15.90;;;11.10;;
26620;SDS011;14253;44.840;10.444;2023-04-08T06:40:43;19.35;;;11.43;;
26620;SDS011;14253;44.840;10.444;2023-04-08T06:43:09;15.10;;;11.15;;
26620;SDS011;14253;44.840;10.444;2023-04-08T06:45:38;13.25;;;10.13;;
26620;SDS011;14253;44.840;10.444;2023-04-08T06:48:04;13.88;;;10.70;;
26620;SDS011;14253;44.840;10.444;2023-04-08T06:50:33;14.15;;;11.07;;
26620;SDS011;14253;44.840;10.444;2023-04-08T06:52:58;14.57;;;10.60;;
26620;SDS011;14253;44.840;10.444;2023-04-08T06:55:24;15.73;;;11.52;;
26620;SDS011;14253;44.840;10.444;2023-04-08T06:57:51;14.18;;;10.07;;
26620;SDS011;14253;44.840;10.444;2023-04-08T07:00:17;15.70;;;11.05;;
26620;SDS011;14253;44.840;10.444;2023-04-08T07:02:42;15.10;;;11.27;;
26620;SDS011;14253;44.840;10.444;2023-04-08T07:05:09;14.68;;;11.77;;
26620;SDS011;14253;44.840;10.444;2023-04-08T07:07:35;14.95;;;11.80;;
26620;SDS011;14253;44.840;10.444;2023-04-08T07:10:01;13.18;;;10.48;;
26620;SDS011;14253;44.840;10.444;2023-04-08T07:12:27;17.75;;;11.95;;
26620;SDS011;14253;44.840;10.444;2023-04-08T07:14:53;16.38;;;11.93;;
26620;SDS011;14253;44.840;10.444;2023-04-08T07:17:19;15.38;;;11.65;;
26620;SDS011;14253;44.840;10.444;2023-04-08T07:19:45;15.00;;;11.57;;
26620;SDS011;14253;44.840;10.444;2023-04-08T07:22:12;17.13;;;12.52;;
26620;SDS011;14253;44.840;10.444;2023-04-08T07:24:38;17.02;;;11.63;;
26620;SDS011;14253;44.840;10.444;2023-04-08T07:27:07;19.48;;;13.35;;
26620;SDS011;14253;44.840;10.444;2023-04-08T07:29:33;18.15;;;13.18;;
26620;SDS011;14253;44.840;10.444;2023-04-08T07:31:59;16.58;;;12.68;;
26620;SDS011;14253;44.840;10.444;2023-04-08T07:34:25;23.92;;;15.35;;
26620;SDS011;14253;44.840;10.444;2023-04-08T07:36:51;21.00;;;14.30;;
26620;SDS011;14253;44.840;10.444;2023-04-08T07:39:17;20.58;;;13.77;;
26620;SDS011;14253;44.840;10.444;2023-04-08T07:41:42;16.83;;;12.95;;
26620;SDS011;14253;44.840;10.444;2023-04-08T07:44:08;19.70;;;14.57;;
26620;SDS011;14253;44.840;10.444;2023-04-08T07:46:37;19.15;;;14.57;;
26620;SDS011;14253;44.840;10.444;2023-04-08T07:49:03;17.92;;;13.68;;
26620;SDS011;14253;44.840;10.444;2023-04-08T07:51:29;22.27;;;15.45;;
26620;SDS011;14253;44.840;10.444;2023-04-08T07:53:55;24.08;;;16.58;;
26620;SDS011;14253;44.840;10.444;2023-04-08T07:56:21;25.55;;;17.17;;
26620;SDS011;14253;44.840;10.444;2023-04-08T07:58:47;26.02;;;18.52;;
26620;SDS011;14253;44.840;10.444;2023-04-08T08:01:21;24.58;;;17.00;;
26620;SDS011;14253;44.840;10.444;2023-04-08T08:03:48;24.02;;;17.20;;
26620;SDS011;14253;44.840;10.444;2023-04-08T08:06:14;22.65;;;16.45;;
26620;SDS011;14253;44.840;10.444;2023-04-08T08:08:40;26.90;;;18.10;;
26620;SDS011;14253;44.840;10.444;2023-04-08T08:11:06;28.00;;;19.05;;
26620;SDS011;14253;44.840;10.444;2023-04-08T08:13:33;29.08;;;17.70;;
26620;SDS011;14253;44.840;10.444;2023-04-08T08:15:59;27.30;;;19.00;;
26620;SDS011;14253;44.840;10.444;2023-04-08T08:18:25;26.95;;;19.80;;
26620;SDS011;14253;44.840;10.444;2023-04-08T08:20:51;27.10;;;20.25;;
26620;SDS011;14253;44.840;10.444;2023-04-08T08:23:17;27.73;;;20.25;;
26620;SDS011;14253;44.840;10.444;2023-04-08T08:25:43;27.95;;;19.42;;
26620;SDS011;14253;44.840;10.444;2023-04-08T08:28:08;29.08;;;21.40;;
26620;SDS011;14253;44.840;10.444;2023-04-08T08:30:34;29.90;;;21.23;;
26620;SDS011;14253;44.840;10.444;2023-04-08T08:33:00;28.75;;;20.58;;
26620;SDS011;14253;44.840;10.444;2023-04-08T08:35:26;31.33;;;20.85;;
26620;SDS011;14253;44.840;10.444;2023-04-08T08:37:52;28.90;;;21.20;;
26620;SDS011;14253;44.840;10.444;2023-04-08T08:40:18;26.73;;;20.73;;
26620;SDS011;14253;44.840;10.444;2023-04-08T08:42:50;28.92;;;20.10;;
26620;SDS011;14253;44.840;10.444;2023-04-08T08:45:19;27.50;;;20.25;;
26620;SDS011;14253;44.840;10.444;2023-04-08T08:47:46;29.38;;;20.65;;
26620;SDS011;14253;44.840;10.444;2023-04-08T08:50:12;27.48;;;20.45;;
26620;SDS011;14253;44.840;10.444;2023-04-08T08:52:38;26.17;;;19.58;;
26620;SDS011;14253;44.840;10.444;2023-04-08T08:55:04;27.52;;;18.85;;
26620;SDS011;14253;44.840;10.444;2023-04-08T08:57:30;27.30;;;19.90;;
26620;SDS011;14253;44.840;10.444;2023-04-08T08:59:56;27.40;;;21.33;;
26620;SDS011;14253;44.840;10.444;2023-04-08T09:02:23;23.70;;;17.27;;
26620;SDS011;14253;44.840;10.444;2023-04-08T09:05:00;27.08;;;19.50;;
26620;SDS011;14253;44.840;10.444;2023-04-08T09:07:28;26.45;;;19.98;;
26620;SDS011;14253;44.840;10.444;2023-04-08T09:09:56;26.70;;;20.60;;
26620;SDS011;14253;44.840;10.444;2023-04-08T09:12:23;26.77;;;18.15;;
26620;SDS011;14253;44.840;10.444;2023-04-08T09:15:02;24.65;;;18.60;;
26620;SDS011;14253;44.840;10.444;2023-04-08T09:17:31;22.67;;;16.40;;
26620;SDS011;14253;44.840;10.444;2023-04-08T09:20:11;23.33;;;17.17;;
26620;SDS011;14253;44.840;10.444;2023-04-08T09:22:55;22.20;;;16.85;;
26620;SDS011;14253;44.840;10.444;2023-04-08T09:25:25;23.65;;;17.55;;
26620;SDS011;14253;44.840;10.444;2023-04-08T09:27:56;26.65;;;20.08;;
26620;SDS011;14253;44.840;10.444;2023-04-08T09:30:23;24.55;;;19.23;;
26620;SDS011;14253;44.840;10.444;2023-04-08T09:32:51;29.42;;;21.00;;
26620;SDS011;14253;44.840;10.444;2023-04-08T09:35:18;27.17;;;20.52;;
26620;SDS011;14253;44.840;10.444;2023-04-08T09:37:45;25.13;;;17.50;;
26620;SDS011;14253;44.840;10.444;2023-04-08T09:40:11;22.85;;;18.25;;
26620;SDS011;14253;44.840;10.444;2023-04-08T09:42:39;21.38;;;16.70;;
26620;SDS011;14253;44.840;10.444;2023-04-08T09:45:07;26.77;;;18.33;;
26620;SDS011;14253;44.840;10.444;2023-04-08T09:47:37;24.77;;;17.80;;
26620;SDS011;14253;44.840;10.444;2023-04-08T09:50:11;25.67;;;18.13;;
26620;SDS011;14253;44.840;10.444;2023-04-08T09:52:46;24.42;;;18.00;;
26620;SDS011;14253;44.840;10.444;2023-04-08T09:55:21;24.88;;;18.30;;
26620;SDS011;14253;44.840;10.444;2023-04-08T09:58:10;26.25;;;19.88;;
26620;SDS011;14253;44.840;10.444;2023-04-08T10:01:03;27.23;;;19.52;;
26620;SDS011;14253;44.840;10.444;2023-04-08T10:03:43;27.20;;;19.38;;
26620;SDS011;14253;44.840;10.444;2023-04-08T10:06:15;27.33;;;19.98;;
26620;SDS011;14253;44.840;10.444;2023-04-08T10:08:41;24.63;;;18.60;;
26620;SDS011;14253;44.840;10.444;2023-04-08T10:11:08;26.52;;;19.55;;
26620;SDS011;14253;44.840;10.444;2023-04-08T10:13:34;28.23;;;20.58;;
26620;SDS011;14253;44.840;10.444;2023-04-08T10:18:51;27.92;;;19.98;;
26620;SDS011;14253;44.840;10.444;2023-04-08T10:24:16;30.80;;;18.38;;
26620;SDS011;14253;44.840;10.444;2023-04-08T10:26:43;28.65;;;18.83;;
26620;SDS011;14253;44.840;10.444;2023-04-08T10:31:43;25.10;;;18.58;;
26620;SDS011;14253;44.840;10.444;2023-04-08T10:34:16;24.17;;;17.35;;
26620;SDS011;14253;44.840;10.444;2023-04-08T10:36:47;23.30;;;17.73;;
26620;SDS011;14253;44.840;10.444;2023-04-08T10:39:14;21.15;;;17.48;;
26620;SDS011;14253;44.840;10.444;2023-04-08T10:41:41;23.83;;;17.77;;
26620;SDS011;14253;44.840;10.444;2023-04-08T10:44:18;25.23;;;17.25;;
26620;SDS011;14253;44.840;10.444;2023-04-08T10:46:44;22.02;;;15.32;;
26620;SDS011;14253;44.840;10.444;2023-04-08T10:49:14;27.30;;;15.77;;
26620;SDS011;14253;44.840;10.444;2023-04-08T10:51:47;23.70;;;15.43;;
26620;SDS011;14253;44.840;10.444;2023-04-08T10:54:24;18.35;;;13.13;;
26620;SDS011;14253;44.840;10.444;2023-04-08T10:56:51;23.17;;;16.05;;
26620;SDS011;14253;44.840;10.444;2023-04-08T10:59:27;22.63;;;14.75;;
26620;SDS011;14253;44.840;10.444;2023-04-08T11:01:54;18.10;;;12.27;;
26620;SDS011;14253;44.840;10.444;2023-04-08T11:04:21;17.77;;;14.00;;
26620;SDS011;14253;44.840;10.444;2023-04-08T11:06:50;19.98;;;13.82;;
26620;SDS011;14253;44.840;10.444;2023-04-08T11:09:16;18.23;;;13.57;;
26620;SDS011;14253;44.840;10.444;2023-04-08T11:11:43;16.70;;;13.23;;
26620;SDS011;14253;44.840;10.444;2023-04-08T11:14:11;18.30;;;13.00;;
26620;SDS011;14253;44.840;10.444;2023-04-08T11:16:38;16.88;;;12.90;;
26620;SDS011;14253;44.840;10.444;2023-04-08T11:19:05;17.45;;;13.23;;
26620;SDS011;14253;44.840;10.444;2023-04-08T11:21:34;23.05;;;13.45;;
26620;SDS011;14253;44.840;10.444;2023-04-08T11:24:05;19.33;;;13.70;;
26620;SDS011;14253;44.840;10.444;2023-04-08T11:26:34;17.88;;;13.15;;
26620;SDS011;14253;44.840;10.444;2023-04-08T11:29:01;20.92;;;13.48;;
26620;SDS011;14253;44.840;10.444;2023-04-08T11:31:28;19.15;;;13.07;;
26620;SDS011;14253;44.840;10.444;2023-04-08T11:33:56;20.60;;;13.48;;
26620;SDS011;14253;44.840;10.444;2023-04-08T11:36:22;20.73;;;13.70;;
26620;SDS011;14253;44.840;10.444;2023-04-08T11:38:48;15.63;;;12.20;;
26620;SDS011;14253;44.840;10.444;2023-04-08T11:41:17;15.82;;;12.50;;
26620;SDS011;14253;44.840;10.444;2023-04-08T11:43:50;18.40;;;13.77;;
26620;SDS011;14253;44.840;10.444;2023-04-08T11:46:20;19.90;;;13.55;;
26620;SDS011;14253;44.840;10.444;2023-04-08T11:48:57;18.33;;;13.40;;
26620;SDS011;14253;44.840;10.444;2023-04-08T11:51:23;16.08;;;12.32;;
26620;SDS011;14253;44.840;10.444;2023-04-08T11:53:49;16.23;;;12.57;;
26620;SDS011;14253;44.840;10.444;2023-04-08T11:56:21;19.05;;;14.00;;
26620;SDS011;14253;44.840;10.444;2023-04-08T11:58:49;19.70;;;13.65;;
26620;SDS011;14253;44.840;10.444;2023-04-08T12:01:16;16.85;;;11.85;;
26620;SDS011;14253;44.840;10.444;2023-04-08T12:03:55;19.63;;;12.60;;
26620;SDS011;14253;44.840;10.444;2023-04-08T12:06:22;19.90;;;12.43;;
26620;SDS011;14253;44.840;10.444;2023-04-08T12:08:49;17.00;;;12.45;;
26620;SDS011;14253;44.840;10.444;2023-04-08T12:11:15;18.83;;;12.23;;
26620;SDS011;14253;44.840;10.444;2023-04-08T12:13:41;15.48;;;10.50;;
26620;SDS011;14253;44.840;10.444;2023-04-08T12:16:07;14.27;;;10.50;;
26620;SDS011;14253;44.840;10.444;2023-04-08T12:18:33;18.33;;;10.90;;
26620;SDS011;14253;44.840;10.444;2023-04-08T12:20:59;17.50;;;11.43;;
26620;SDS011;14253;44.840;10.444;2023-04-08T12:23:25;17.15;;;10.50;;
26620;SDS011;14253;44.840;10.444;2023-04-08T12:25:51;15.18;;;10.55;;
26620;SDS011;14253;44.840;10.444;2023-04-08T12:28:17;18.55;;;11.35;;
26620;SDS011;14253;44.840;10.444;2023-04-08T12:30:43;15.15;;;11.23;;
26620;SDS011;14253;44.840;10.444;2023-04-08T12:33:08;15.30;;;11.25;;
26620;SDS011;14253;44.840;10.444;2023-04-08T12:35:34;16.17;;;11.15;;
26620;SDS011;14253;44.840;10.444;2023-04-08T12:38:01;15.70;;;10.80;;
26620;SDS011;14253;44.840;10.444;2023-04-08T12:40:26;18.75;;;12.23;;
26620;SDS011;14253;44.840;10.444;2023-04-08T12:42:52;17.70;;;12.05;;
26620;SDS011;14253;44.840;10.444;2023-04-08T12:45:18;14.45;;;10.48;;
26620;SDS011;14253;44.840;10.444;2023-04-08T12:47:44;17.73;;;11.45;;
26620;SDS011;14253;44.840;10.444;2023-04-08T12:50:10;14.73;;;10.55;;
26620;SDS011;14253;44.840;10.444;2023-04-08T12:52:36;14.07;;;10.70;;
26620;SDS011;14253;44.840;10.444;2023-04-08T12:55:02;17.38;;;11.98;;
26620;SDS011;14253;44.840;10.444;2023-04-08T12:57:29;15.90;;;10.05;;
26620;SDS011;14253;44.840;10.444;2023-04-08T12:59:56;14.52;;;10.75;;
26620;SDS011;14253;44.840;10.444;2023-04-08T13:02:22;17.33;;;11.35;;
26620;SDS011;14253;44.840;10.444;2023-04-08T13:04:49;16.35;;;11.05;;
26620;SDS011;14253;44.840;10.444;2023-04-08T13:07:17;17.38;;;11.88;;
26620;SDS011;14253;44.840;10.444;2023-04-08T13:09:43;18.52;;;11.63;;
26620;SDS011;14253;44.840;10.444;2023-04-08T13:12:10;16.95;;;10.20;;
26620;SDS011;14253;44.840;10.444;2023-04-08T13:14:36;15.38;;;10.10;;
26620;SDS011;14253;44.840;10.444;2023-04-08T13:17:03;16.38;;;10.38;;
26620;SDS011;14253;44.840;10.444;2023-04-08T13:19:29;15.32;;;10.77;;
26620;SDS011;14253;44.840;10.444;2023-04-08T13:21:55;14.07;;;10.63;;
26620;SDS011;14253;44.840;10.444;2023-04-08T13:24:21;16.27;;;10.20;;
26620;SDS011;14253;44.840;10.444;2023-04-08T13:26:47;18.05;;;10.88;;
26620;SDS011;14253;44.840;10.444;2023-04-08T13:29:13;14.43;;;10.02;;
26620;SDS011;14253;44.840;10.444;2023-04-08T13:31:39;17.30;;;9.95;;
26620;SDS011;14253;44.840;10.444;2023-04-08T13:34:05;14.10;;;9.77;;
26620;SDS011;14253;44.840;10.444;2023-04-08T13:36:32;15.88;;;10.63;;
26620;SDS011;14253;44.840;10.444;2023-04-08T13:38:58;15.75;;;10.70;;
26620;SDS011;14253;44.840;10.444;2023-04-08T13:41:24;17.30;;;10.85;;
26620;SDS011;14253;44.840;10.444;2023-04-08T13:43:52;17.05;;;11.00;;
26620;SDS011;14253;44.840;10.444;2023-04-08T13:46:18;15.73;;;10.77;;
26620;SDS011;14253;44.840;10.444;2023-04-08T13:48:44;14.52;;;10.13;;
26620;SDS011;14253;44.840;10.444;2023-04-08T13:51:10;16.38;;;10.18;;
26620;SDS011;14253;44.840;10.444;2023-04-08T13:53:36;16.88;;;11.40;;
26620;SDS011;14253;44.840;10.444;2023-04-08T13:56:02;17.73;;;11.38;;
26620;SDS011;14253;44.840;10.444;2023-04-08T13:58:28;16.45;;;11.07;;
26620;SDS011;14253;44.840;10.444;2023-04-08T14:00:53;19.75;;;10.77;;
26620;SDS011;14253;44.840;10.444;2023-04-08T14:03:20;15.85;;;10.85;;
26620;SDS011;14253;44.840;10.444;2023-04-08T14:05:46;13.32;;;9.18;;
26620;SDS011;14253;44.840;10.444;2023-04-08T14:08:12;16.70;;;10.23;;
26620;SDS011;14253;44.840;10.444;2023-04-08T14:10:38;17.38;;;10.70;;
26620;SDS011;14253;44.840;10.444;2023-04-08T14:13:04;13.50;;;10.05;;
26620;SDS011;14253;44.840;10.444;2023-04-08T14:15:30;15.82;;;10.52;;
26620;SDS011;14253;44.840;10.444;2023-04-08T14:17:56;17.20;;;10.85;;
26620;SDS011;14253;44.840;10.444;2023-04-08T14:20:22;16.52;;;10.38;;
26620;SDS011;14253;44.840;10.444;2023-04-08T14:22:48;17.23;;;9.77;;